createdAt,value
2019-03-20T00:01:03.634Z,6.53
2019-03-20T00:03:33.960Z,6.28
2019-03-20T00:06:03.622Z,8.03
2019-03-20T00:08:33.835Z,7.53
2019-03-20T00:11:04.186Z,6.90
2019-03-20T00:13:34.554Z,6.45
2019-03-20T00:16:04.239Z,6.93
2019-03-20T00:18:34.447Z,6.83
2019-03-20T00:21:04.792Z,7.00
2019-03-20T00:23:35.143Z,7.17
2019-03-20T00:26:05.592Z,7.77
2019-03-20T00:28:35.907Z,7.67
2019-03-20T00:31:06.245Z,7.93
2019-03-20T00:33:36.544Z,8.70
2019-03-20T00:36:06.887Z,8.43
2019-03-20T00:38:37.242Z,9.03
2019-03-20T00:41:07.554Z,7.17
2019-03-20T00:43:37.824Z,8.07
2019-03-20T00:46:08.139Z,8.27
2019-03-20T00:48:38.475Z,8.75
2019-03-20T00:51:08.147Z,7.93
2019-03-20T00:53:38.383Z,7.37
2019-03-20T00:56:08.087Z,7.67
2019-03-20T00:58:39.774Z,7.13
2019-03-20T01:01:09.554Z,7.40
2019-03-20T01:03:41.040Z,8.00
2019-03-20T01:06:11.315Z,7.00
2019-03-20T01:08:41.623Z,7.63
2019-03-20T01:11:12.002Z,6.40
2019-03-20T01:13:41.691Z,7.07
2019-03-20T01:16:11.274Z,7.00
2019-03-20T01:18:41.432Z,7.40
2019-03-20T01:21:11.760Z,7.37
2019-03-20T01:23:42.220Z,8.13
2019-03-20T01:26:12.544Z,7.40
2019-03-20T01:28:42.851Z,7.90
2019-03-20T01:31:13.192Z,7.40
2019-03-20T01:33:43.535Z,7.30
2019-03-20T01:36:13.869Z,8.07
2019-03-20T01:38:44.317Z,7.07
2019-03-20T01:41:15.243Z,6.80
2019-03-20T01:43:45.592Z,7.20
2019-03-20T01:46:15.279Z,6.57
2019-03-20T01:48:45.500Z,8.50
2019-03-20T01:51:22.555Z,7.77
2019-03-20T01:53:53.010Z,7.33
2019-03-20T01:56:23.046Z,7.70
2019-03-20T01:58:53.284Z,7.83
2019-03-20T02:01:23.607Z,9.90
2019-03-20T02:03:53.954Z,8.37
2019-03-20T02:06:24.271Z,8.80
2019-03-20T02:08:54.599Z,8.53
2019-03-20T02:11:24.899Z,8.47
2019-03-20T02:13:55.236Z,8.57
2019-03-20T02:16:25.568Z,9.90
2019-03-20T02:18:55.888Z,9.50
2019-03-20T02:21:26.219Z,8.93
2019-03-20T02:23:56.548Z,9.27
2019-03-20T02:26:26.884Z,8.43
2019-03-20T02:28:57.228Z,7.60
2019-03-20T02:31:27.550Z,7.37
2019-03-20T02:33:57.877Z,8.48
2019-03-20T02:36:27.548Z,10.23
2019-03-20T02:38:57.758Z,9.00
2019-03-20T02:41:28.132Z,9.53
2019-03-20T02:43:58.472Z,8.67
2019-03-20T02:46:28.161Z,10.60
2019-03-20T02:48:58.382Z,9.83
2019-03-20T02:51:28.736Z,9.50
2019-03-20T02:53:59.054Z,9.63
2019-03-20T02:56:28.735Z,9.30
2019-03-20T02:58:58.940Z,8.67
2019-03-20T03:01:29.280Z,8.63
2019-03-20T03:03:58.960Z,10.53
2019-03-20T03:06:29.213Z,9.50
2019-03-20T03:08:59.545Z,8.10
2019-03-20T03:11:29.868Z,9.33
2019-03-20T03:13:59.516Z,9.00
2019-03-20T03:16:29.771Z,9.20
2019-03-20T03:18:59.438Z,9.37
2019-03-20T03:21:29.660Z,9.67
2019-03-20T03:23:59.332Z,9.50
2019-03-20T03:26:28.978Z,7.83
2019-03-20T03:28:59.234Z,9.37
2019-03-20T03:31:29.581Z,9.18
2019-03-20T03:33:59.876Z,8.20
2019-03-20T03:36:30.221Z,9.45
2019-03-20T03:39:00.656Z,9.83
2019-03-20T03:41:31.193Z,10.53
2019-03-20T03:44:01.604Z,10.60
2019-03-20T03:46:31.957Z,10.70
2019-03-20T03:49:02.319Z,10.20
2019-03-20T03:51:32.612Z,9.53
2019-03-20T03:54:02.273Z,8.43
2019-03-20T03:56:32.504Z,9.63
2019-03-20T03:59:02.945Z,8.80
2019-03-20T04:01:33.262Z,9.00
2019-03-20T04:04:03.596Z,10.90
2019-03-20T04:06:35.779Z,9.33
2019-03-20T04:09:07.659Z,8.70
2019-03-20T04:11:37.984Z,8.73
2019-03-20T04:14:08.407Z,7.97
2019-03-20T04:16:38.099Z,7.73
2019-03-20T04:19:08.330Z,8.27
2019-03-20T04:21:38.653Z,7.87
2019-03-20T04:24:08.997Z,7.80
2019-03-20T04:26:38.686Z,8.27
2019-03-20T04:29:08.941Z,7.20
2019-03-20T04:31:39.258Z,7.97
2019-03-20T04:34:09.598Z,7.40
2019-03-20T04:36:47.781Z,8.40
2019-03-20T04:39:11.165Z,7.00
2019-03-20T04:41:40.824Z,7.20
2019-03-20T04:44:11.060Z,8.70
2019-03-20T04:46:40.738Z,7.80
2019-03-20T04:49:10.300Z,7.70
2019-03-20T04:51:40.523Z,7.50
2019-03-20T04:54:10.187Z,7.83
2019-03-20T04:56:39.767Z,6.83
2019-03-20T04:59:10.028Z,7.10
2019-03-20T05:01:40.353Z,6.50
2019-03-20T05:04:10.027Z,6.43
2019-03-20T05:06:39.627Z,6.95
2019-03-20T05:09:09.862Z,6.30
2019-03-20T05:11:40.213Z,8.33
2019-03-20T05:14:12.322Z,5.90
2019-03-20T05:16:41.744Z,6.67
2019-03-20T05:19:12.069Z,6.57
2019-03-20T05:21:42.399Z,6.10
2019-03-20T05:24:12.083Z,6.00
2019-03-20T05:26:42.311Z,6.70
2019-03-20T05:29:11.927Z,6.37
2019-03-20T05:31:42.185Z,6.57
2019-03-20T05:34:11.859Z,6.67
2019-03-20T05:36:42.095Z,6.53
2019-03-20T05:39:11.771Z,6.60
2019-03-20T05:41:41.999Z,5.83
2019-03-20T05:44:12.343Z,5.73
2019-03-20T05:46:42.652Z,7.93
2019-03-20T05:49:12.975Z,8.37
2019-03-20T05:51:43.304Z,6.63
2019-03-20T05:54:14.855Z,6.37
2019-03-20T05:56:45.158Z,6.60
2019-03-20T05:59:15.478Z,7.37
2019-03-20T06:01:45.799Z,6.73
2019-03-20T06:04:16.134Z,6.23
2019-03-20T06:06:46.447Z,7.07
2019-03-20T06:09:16.781Z,6.83
2019-03-20T06:11:47.092Z,6.67
2019-03-20T06:14:17.457Z,6.23
2019-03-20T06:16:47.777Z,7.67
2019-03-20T06:19:18.111Z,7.07
2019-03-20T06:21:48.421Z,7.97
2019-03-20T06:24:18.756Z,7.43
2019-03-20T06:26:49.076Z,8.73
2019-03-20T06:29:20.240Z,6.67
2019-03-20T06:31:50.645Z,7.63
2019-03-20T06:34:20.995Z,7.40
2019-03-20T06:36:51.332Z,6.63
2019-03-20T06:39:22.191Z,6.63
2019-03-20T06:41:52.569Z,6.80
2019-03-20T06:44:22.870Z,6.87
2019-03-20T06:46:53.182Z,7.43
2019-03-20T06:49:23.514Z,6.97
2019-03-20T06:51:53.850Z,8.37
2019-03-20T06:54:23.542Z,8.50
2019-03-20T06:56:53.770Z,7.27
2019-03-20T06:59:26.959Z,7.97
2019-03-20T07:01:57.375Z,7.93
2019-03-20T07:04:34.355Z,8.10
2019-03-20T07:07:24.157Z,8.17
2019-03-20T07:10:27.542Z,6.80
2019-03-20T07:12:57.866Z,7.37
2019-03-20T07:15:28.216Z,6.53
2019-03-20T07:17:57.852Z,6.27
2019-03-20T07:20:28.118Z,5.73
2019-03-20T07:22:58.435Z,5.80
2019-03-20T07:25:28.772Z,5.10
2019-03-20T07:27:58.514Z,5.67
2019-03-20T07:30:28.786Z,6.73
2019-03-20T07:32:59.090Z,5.13
2019-03-20T07:35:29.419Z,5.30
2019-03-20T07:37:59.117Z,6.33
2019-03-20T07:40:29.392Z,5.47
2019-03-20T07:43:08.292Z,5.80
2019-03-20T07:45:31.047Z,5.73
2019-03-20T07:48:01.275Z,6.37
2019-03-20T07:50:31.659Z,6.15
2019-03-20T07:53:01.975Z,5.60
2019-03-20T07:55:32.340Z,6.60
2019-03-20T07:58:02.683Z,5.60
2019-03-20T08:00:33.033Z,5.53
2019-03-20T08:03:03.360Z,5.97
2019-03-20T08:05:33.892Z,5.50
2019-03-20T08:08:07.547Z,5.13
2019-03-20T08:10:35.420Z,6.33
2019-03-20T08:13:05.761Z,5.60
2019-03-20T08:15:35.511Z,5.00
2019-03-20T08:18:05.148Z,4.97
2019-03-20T08:20:35.402Z,4.73
2019-03-20T08:23:07.207Z,5.30
2019-03-20T08:25:37.765Z,5.37
2019-03-20T08:28:08.103Z,4.90
2019-03-20T08:30:38.435Z,5.23
2019-03-20T08:33:08.766Z,4.67
2019-03-20T08:35:39.099Z,4.25
2019-03-20T08:38:17.781Z,4.60
2019-03-20T08:40:41.375Z,4.20
2019-03-20T08:43:11.735Z,5.40
2019-03-20T08:45:42.099Z,4.43
2019-03-20T08:48:12.574Z,4.57
2019-03-20T08:50:42.879Z,4.33
2019-03-20T08:53:13.228Z,4.93
2019-03-20T08:55:43.559Z,5.67
2019-03-20T08:58:13.241Z,5.53
2019-03-20T09:00:43.483Z,6.13
2019-03-20T09:03:13.846Z,5.50
2019-03-20T09:05:44.167Z,4.90
2019-03-20T09:08:14.480Z,4.87
2019-03-20T09:10:44.812Z,4.97
2019-03-20T09:13:15.170Z,4.63
2019-03-20T09:15:44.851Z,5.10
2019-03-20T09:18:14.432Z,5.27
2019-03-20T09:20:44.051Z,4.97
2019-03-20T09:23:13.603Z,5.20
2019-03-20T09:25:43.850Z,4.80
2019-03-20T09:28:14.178Z,5.23
2019-03-20T09:30:44.519Z,5.60
2019-03-20T09:33:14.857Z,3.60
2019-03-20T09:35:45.181Z,3.77
2019-03-20T09:38:14.864Z,4.73
2019-03-20T09:40:44.451Z,5.00
2019-03-20T09:43:14.894Z,6.20
2019-03-20T09:45:44.573Z,5.37
2019-03-20T09:48:14.160Z,6.10
2019-03-20T09:50:44.442Z,6.20
2019-03-20T09:53:14.102Z,7.60
2019-03-20T09:55:44.335Z,7.50
2019-03-20T09:58:14.678Z,7.27
2019-03-20T10:00:45.001Z,7.17
2019-03-20T10:03:15.348Z,6.80
2019-03-20T10:05:45.031Z,6.47
2019-03-20T10:08:15.257Z,6.37
2019-03-20T10:10:44.936Z,13.43
2019-03-20T10:13:15.264Z,23.90
2019-03-20T10:15:44.919Z,6.37
2019-03-20T10:18:15.148Z,6.07
2019-03-20T10:20:44.827Z,14.53
2019-03-20T10:23:15.080Z,8.07
2019-03-20T10:25:45.438Z,12.83
2019-03-20T10:28:15.115Z,6.33
2019-03-20T10:30:45.391Z,6.10
2019-03-20T10:33:16.715Z,5.40
2019-03-20T10:35:50.461Z,6.43
2019-03-20T10:38:19.029Z,5.70
2019-03-20T10:40:49.372Z,4.67
2019-03-20T10:43:20.612Z,5.07
2019-03-20T10:45:50.944Z,5.10
2019-03-20T10:48:21.286Z,4.93
2019-03-20T10:50:50.979Z,5.70
2019-03-20T10:53:21.225Z,5.10
2019-03-20T10:55:51.957Z,4.80
2019-03-20T10:58:22.522Z,4.40
2019-03-20T11:00:52.848Z,4.43
2019-03-20T11:03:23.175Z,3.87
2019-03-20T11:05:53.695Z,4.33
2019-03-20T11:08:23.345Z,4.03
2019-03-20T11:10:53.697Z,3.50
2019-03-20T11:13:24.128Z,3.90
2019-03-20T11:15:54.455Z,3.93
2019-03-20T11:18:24.828Z,4.13
2019-03-20T11:20:55.269Z,3.93
2019-03-20T11:23:25.723Z,3.90
2019-03-20T11:25:56.026Z,3.10
2019-03-20T11:28:25.715Z,2.10
2019-03-20T11:30:55.984Z,3.00
2019-03-20T11:33:26.320Z,2.40
2019-03-20T11:35:56.802Z,2.33
2019-03-20T11:38:26.419Z,2.10
2019-03-20T11:40:56.096Z,2.93
2019-03-20T11:43:26.393Z,2.60
2019-03-20T11:45:56.068Z,2.77
2019-03-20T11:48:26.425Z,2.50
2019-03-20T11:50:56.167Z,2.90
2019-03-20T11:53:26.438Z,2.90
2019-03-20T11:55:56.130Z,2.80
2019-03-20T11:58:26.480Z,2.80
2019-03-20T12:00:56.242Z,2.90
2019-03-20T12:03:26.499Z,2.77
2019-03-20T12:05:56.167Z,2.60
2019-03-20T12:08:26.544Z,2.43
2019-03-20T12:10:56.223Z,2.47
2019-03-20T12:13:26.503Z,2.53
2019-03-20T12:15:56.171Z,1.97
2019-03-20T12:18:26.461Z,2.03
2019-03-20T12:20:56.144Z,1.77
2019-03-20T12:23:26.439Z,2.20
2019-03-20T12:25:56.125Z,1.90
2019-03-20T12:28:26.404Z,1.80
2019-03-20T12:30:56.075Z,1.90
2019-03-20T12:33:26.335Z,1.50
2019-03-20T12:35:56.741Z,1.43
2019-03-20T12:38:27.115Z,1.13
2019-03-20T12:40:56.799Z,1.17
2019-03-20T12:43:29.120Z,0.90
2019-03-20T12:46:00.455Z,0.77
2019-03-20T12:48:30.191Z,0.67
2019-03-20T12:51:00.426Z,0.57
2019-03-20T12:53:31.852Z,1.27
2019-03-20T12:56:02.238Z,0.97
2019-03-20T12:58:32.570Z,0.80
2019-03-20T13:01:02.931Z,1.17
2019-03-20T13:03:33.263Z,1.27
2019-03-20T13:06:02.966Z,0.87
2019-03-20T13:08:33.268Z,1.00
2019-03-20T13:11:02.977Z,2.50
2019-03-20T13:13:32.591Z,0.90
2019-03-20T13:16:02.207Z,0.60
2019-03-20T13:18:32.498Z,1.30
2019-03-20T13:21:02.951Z,1.13
2019-03-20T13:23:32.754Z,1.10
2019-03-20T13:26:02.397Z,0.80
2019-03-20T13:28:32.012Z,0.90
2019-03-20T13:31:02.999Z,1.00
2019-03-20T13:33:32.631Z,0.90
2019-03-20T13:36:02.230Z,0.80
2019-03-20T13:38:32.595Z,1.20
2019-03-20T13:41:03.050Z,1.17
2019-03-20T13:43:33.427Z,1.30
2019-03-20T13:46:03.403Z,1.20
2019-03-20T13:48:33.707Z,0.90
2019-03-20T13:51:04.045Z,1.37
2019-03-20T13:53:33.736Z,1.00
2019-03-20T13:56:03.310Z,1.00
2019-03-20T13:58:32.951Z,1.33
2019-03-20T14:01:03.308Z,1.10
2019-03-20T14:03:33.755Z,0.70
2019-03-20T14:06:03.482Z,0.80
2019-03-20T14:08:33.776Z,1.03
2019-03-20T14:11:04.340Z,1.20
2019-03-20T14:13:34.700Z,0.93
2019-03-20T14:16:04.392Z,0.50
2019-03-20T14:18:34.670Z,0.53
2019-03-20T14:21:05.059Z,0.50
2019-03-20T14:23:35.399Z,0.43
2019-03-20T14:26:05.095Z,0.50
2019-03-20T14:28:35.374Z,0.60
2019-03-20T14:31:05.744Z,0.40
2019-03-20T14:33:36.091Z,0.40
2019-03-20T14:36:06.451Z,0.50
2019-03-20T14:38:36.839Z,0.40
2019-03-20T14:41:06.628Z,0.60
2019-03-20T14:43:36.260Z,0.60
2019-03-20T14:46:06.533Z,0.50
2019-03-20T14:48:36.939Z,0.50
2019-03-20T14:51:07.397Z,0.53
2019-03-20T14:53:37.731Z,0.70
2019-03-20T14:56:08.098Z,0.70
2019-03-20T14:58:38.449Z,0.70
2019-03-20T15:01:08.861Z,0.70
2019-03-20T15:03:38.556Z,1.00
2019-03-20T15:06:08.201Z,0.60
2019-03-20T15:08:38.451Z,0.90
2019-03-20T15:11:08.846Z,1.20
2019-03-20T15:13:39.195Z,0.93
2019-03-20T15:16:10.390Z,0.80
2019-03-20T15:18:40.671Z,1.30
2019-03-20T15:21:11.035Z,1.10
2019-03-20T15:23:41.403Z,1.20
2019-03-20T15:26:11.763Z,1.60
2019-03-20T15:28:42.127Z,1.40
2019-03-20T15:31:11.887Z,2.00
2019-03-20T15:33:42.197Z,2.17
2019-03-20T15:36:12.584Z,2.07
2019-03-20T15:38:42.995Z,2.07
2019-03-20T15:41:14.050Z,1.90
2019-03-20T15:43:43.831Z,2.80
2019-03-20T15:46:13.419Z,2.80
2019-03-20T15:48:43.031Z,3.07
2019-03-20T15:51:13.274Z,2.23
2019-03-20T15:53:43.620Z,2.30
2019-03-20T15:56:13.968Z,2.50
2019-03-20T15:58:44.323Z,2.67
2019-03-20T16:01:14.673Z,2.47
2019-03-20T16:03:45.024Z,2.53
2019-03-20T16:06:15.387Z,2.63
2019-03-20T16:08:45.723Z,2.93
2019-03-20T16:11:16.075Z,2.77
2019-03-20T16:13:46.515Z,2.57
2019-03-20T16:16:16.230Z,2.50
2019-03-20T16:18:47.454Z,2.80
2019-03-20T16:21:17.123Z,2.87
2019-03-20T16:23:47.425Z,2.60
2019-03-20T16:26:17.144Z,1.97
2019-03-20T16:28:47.380Z,2.50
2019-03-20T16:31:17.077Z,2.30
2019-03-20T16:33:47.403Z,2.60
2019-03-20T16:36:17.151Z,2.20
2019-03-20T16:38:47.434Z,1.80
2019-03-20T16:41:17.819Z,2.00
2019-03-20T16:43:47.514Z,2.47
2019-03-20T16:46:17.136Z,2.80
2019-03-20T16:48:47.386Z,3.00
2019-03-20T16:51:17.746Z,3.07
2019-03-20T16:53:47.433Z,2.60
2019-03-20T16:56:17.068Z,2.83
2019-03-20T16:58:47.391Z,3.20
2019-03-20T17:01:18.064Z,3.30
2019-03-20T17:03:48.554Z,3.50
2019-03-20T17:06:18.279Z,3.07
2019-03-20T17:08:47.905Z,3.43
2019-03-20T17:11:27.442Z,3.07
2019-03-20T17:13:49.487Z,2.67
2019-03-20T17:16:19.789Z,3.80
2019-03-20T17:18:50.201Z,2.83
2019-03-20T17:21:20.815Z,2.90
2019-03-20T17:23:51.063Z,2.40
2019-03-20T17:26:21.975Z,3.07
2019-03-20T17:28:51.759Z,2.67
2019-03-20T17:31:22.209Z,2.47
2019-03-20T17:33:52.647Z,2.00
2019-03-20T17:36:22.614Z,2.00
2019-03-20T17:38:52.523Z,1.80
2019-03-20T17:41:22.800Z,1.30
2019-03-20T17:43:53.242Z,1.37
2019-03-20T17:46:22.961Z,1.60
2019-03-20T17:48:53.272Z,1.70
2019-03-20T17:51:22.991Z,1.70
2019-03-20T17:53:52.593Z,1.60
2019-03-20T17:56:22.221Z,1.90
2019-03-20T17:58:51.885Z,1.67
2019-03-20T18:01:22.160Z,1.50
2019-03-20T18:03:51.881Z,1.70
2019-03-20T18:06:22.146Z,1.73
2019-03-20T18:08:51.870Z,1.97
2019-03-20T18:11:22.160Z,1.30
2019-03-20T18:13:51.913Z,1.27
2019-03-20T18:16:22.172Z,1.50
2019-03-20T18:18:51.895Z,1.20
2019-03-20T18:21:21.486Z,1.57
2019-03-20T18:23:51.876Z,1.50
2019-03-20T18:26:22.214Z,1.37
2019-03-20T18:28:51.915Z,1.70
2019-03-20T18:31:22.184Z,1.30
2019-03-20T18:33:51.884Z,1.53
2019-03-20T18:36:22.132Z,1.50
2019-03-20T18:38:51.842Z,1.57
2019-03-20T18:41:22.102Z,1.60
2019-03-20T18:43:51.799Z,1.50
2019-03-20T18:46:22.058Z,1.23
2019-03-20T18:48:52.407Z,1.10
2019-03-20T18:51:22.081Z,1.27
2019-03-20T18:53:52.369Z,1.40
2019-03-20T18:56:22.065Z,0.90
2019-03-20T18:58:52.344Z,0.93
2019-03-20T19:01:22.021Z,1.60
2019-03-20T19:03:51.636Z,1.63
2019-03-20T19:06:24.476Z,2.40
2019-03-20T19:08:54.204Z,1.90
2019-03-20T19:11:25.535Z,1.40
2019-03-20T19:13:57.715Z,1.13
2019-03-20T19:16:28.107Z,1.92
2019-03-20T19:18:58.972Z,1.60
2019-03-20T19:21:29.387Z,2.27
2019-03-20T19:24:00.365Z,2.50
2019-03-20T19:26:31.070Z,2.47
2019-03-20T19:29:01.059Z,2.43
2019-03-20T19:31:31.369Z,3.47
2019-03-20T19:34:01.451Z,3.20
2019-03-20T19:36:31.711Z,2.70
2019-03-20T19:39:01.451Z,3.10
2019-03-20T19:41:31.092Z,2.80
2019-03-20T19:44:01.014Z,2.77
2019-03-20T19:46:30.711Z,2.37
2019-03-20T19:49:01.640Z,1.90
2019-03-20T19:51:31.899Z,1.73
2019-03-20T19:54:01.888Z,1.90
2019-03-20T19:56:32.145Z,1.77
2019-03-20T19:59:03.622Z,2.00
2019-03-20T20:01:33.868Z,2.60
2019-03-20T20:04:03.789Z,2.23
2019-03-20T20:06:33.392Z,2.50
2019-03-20T20:09:04.596Z,2.30
2019-03-20T20:11:34.999Z,2.93
2019-03-20T20:14:05.675Z,2.77
2019-03-20T20:16:36.163Z,2.90
2019-03-20T20:19:05.844Z,2.63
2019-03-20T20:21:36.111Z,2.90
2019-03-20T20:24:05.806Z,2.50
2019-03-20T20:26:36.083Z,2.67
2019-03-20T20:29:05.803Z,2.53
2019-03-20T20:31:36.123Z,2.30
2019-03-20T20:34:06.119Z,3.00
2019-03-20T20:36:36.499Z,2.20
2019-03-20T20:39:08.054Z,2.83
2019-03-20T20:41:38.360Z,3.00
2019-03-20T20:44:08.094Z,2.70
2019-03-20T20:46:38.400Z,3.30
2019-03-20T20:49:08.119Z,2.60
2019-03-20T20:51:38.399Z,2.67
2019-03-20T20:54:08.128Z,2.70
2019-03-20T20:56:38.528Z,2.60
2019-03-20T20:59:09.025Z,2.73
2019-03-20T21:01:39.379Z,2.60
2019-03-20T21:04:09.079Z,3.30
2019-03-20T21:06:39.795Z,3.40
2019-03-20T21:09:09.441Z,3.47
2019-03-20T21:11:39.765Z,3.23
2019-03-20T21:14:09.510Z,2.67
2019-03-20T21:16:40.262Z,3.33
2019-03-20T21:19:28.955Z,3.37
2019-03-20T21:22:40.517Z,3.40
2019-03-20T21:25:11.696Z,3.70
2019-03-20T21:28:27.967Z,3.60
2019-03-20T21:31:25.261Z,4.30
2019-03-20T21:34:33.751Z,3.90
2019-03-20T21:37:43.225Z,3.90
2019-03-20T21:40:16.049Z,4.30
2019-03-20T21:43:51.623Z,4.00
2019-03-20T21:46:38.714Z,4.13
2019-03-20T21:49:09.533Z,3.77
2019-03-20T21:51:40.415Z,4.50
2019-03-20T21:54:48.895Z,4.60
2019-03-20T21:57:54.479Z,4.92
2019-03-20T22:00:42.218Z,5.60
2019-03-20T22:03:17.425Z,7.63
2019-03-20T22:06:05.351Z,9.80
2019-03-20T22:08:35.225Z,9.67
2019-03-20T22:11:45.230Z,9.43
2019-03-20T22:14:16.437Z,9.70
2019-03-20T22:17:04.038Z,9.27
2019-03-20T22:20:27.307Z,6.87
2019-03-20T22:23:35.155Z,5.73
2019-03-20T22:26:35.566Z,5.47
2019-03-20T22:29:28.652Z,7.73
2019-03-20T22:32:49.091Z,7.33
2019-03-20T22:35:43.882Z,9.03
2019-03-20T22:38:20.121Z,8.30
2019-03-20T22:41:26.810Z,7.90
2019-03-20T22:44:01.283Z,6.70
2019-03-20T22:47:10.454Z,8.87
2019-03-20T22:50:11.183Z,8.37
2019-03-20T22:53:17.919Z,6.10
2019-03-20T22:56:25.140Z,5.30
2019-03-20T22:58:56.012Z,5.43
2019-03-20T23:01:40.558Z,4.30
2019-03-20T23:04:22.117Z,4.70
2019-03-20T23:06:52.971Z,4.80
2019-03-20T23:09:22.895Z,5.17
2019-03-20T23:11:53.675Z,4.70
2019-03-20T23:14:23.624Z,4.20
2019-03-20T23:16:53.509Z,4.57
2019-03-20T23:19:23.334Z,4.63
2019-03-20T23:21:54.138Z,4.37
2019-03-20T23:24:25.007Z,3.73
2019-03-20T23:26:55.525Z,4.03
2019-03-20T23:29:25.364Z,3.70
2019-03-20T23:31:56.114Z,3.70
2019-03-20T23:34:26.056Z,4.17
2019-03-20T23:36:56.895Z,4.13
2019-03-20T23:39:26.838Z,3.90
2019-03-20T23:41:57.624Z,4.80
2019-03-20T23:44:28.507Z,5.50
2019-03-20T23:46:59.427Z,4.28
2019-03-20T23:49:30.319Z,4.12
2019-03-20T23:52:01.183Z,3.73
2019-03-20T23:54:51.963Z,3.22
2019-03-20T23:57:22.826Z,4.00
2019-03-20T23:59:54.758Z,3.23
